sensor_id;sensor_type;location;lat;lon;timestamp;temperature;humidity
29775;DHT22;16676;51.202;6.774;2024-01-25T00:01:02;19.70;65.20
29775;DHT22;16676;51.202;6.774;2024-01-25T00:05:05;19.60;65.20
29775;DHT22;16676;51.202;6.774;2024-01-25T00:09:07;19.60;65.10
29775;DHT22;16676;51.202;6.774;2024-01-25T00:13:09;19.60;65.20
29775;DHT22;16676;51.202;6.774;2024-01-25T00:17:13;19.60;65.30
29775;DHT22;16676;51.202;6.774;2024-01-25T00:21:15;19.60;65.30
29775;DHT22;16676;51.202;6.774;2024-01-25T00:25:17;19.50;65.40
29775;DHT22;16676;51.202;6.774;2024-01-25T00:29:19;19.60;65.40
29775;DHT22;16676;51.202;6.774;2024-01-25T00:33:22;19.50;65.50
29775;DHT22;16676;51.202;6.774;2024-01-25T00:37:24;19.50;65.50
29775;DHT22;16676;51.202;6.774;2024-01-25T00:41:27;19.50;65.50
29775;DHT22;16676;51.202;6.774;2024-01-25T00:45:31;19.50;65.60
29775;DHT22;16676;51.202;6.774;2024-01-25T00:49:35;19.50;65.60
29775;DHT22;16676;51.202;6.774;2024-01-25T00:53:38;19.50;65.60
29775;DHT22;16676;51.202;6.774;2024-01-25T00:57:40;19.50;65.70
29775;DHT22;16676;51.202;6.774;2024-01-25T01:01:44;19.40;65.70
29775;DHT22;16676;51.202;6.774;2024-01-25T01:05:49;19.40;65.80
29775;DHT22;16676;51.202;6.774;2024-01-25T01:09:52;19.40;65.90
29775;DHT22;16676;51.202;6.774;2024-01-25T01:13:54;19.40;65.90
29775;DHT22;16676;51.202;6.774;2024-01-25T01:17:55;19.40;66.00
29775;DHT22;16676;51.202;6.774;2024-01-25T01:21:59;19.40;66.10
29775;DHT22;16676;51.202;6.774;2024-01-25T01:26:01;19.30;66.10
29775;DHT22;16676;51.202;6.774;2024-01-25T01:30:03;19.30;66.20
29775;DHT22;16676;51.202;6.774;2024-01-25T01:34:05;19.30;66.30
29775;DHT22;16676;51.202;6.774;2024-01-25T01:38:09;19.30;66.30
29775;DHT22;16676;51.202;6.774;2024-01-25T01:42:11;19.30;66.50
29775;DHT22;16676;51.202;6.774;2024-01-25T01:46:20;19.20;66.40
29775;DHT22;16676;51.202;6.774;2024-01-25T01:50:27;19.20;66.50
29775;DHT22;16676;51.202;6.774;2024-01-25T01:54:31;19.20;66.50
29775;DHT22;16676;51.202;6.774;2024-01-25T01:58:33;19.20;66.60
29775;DHT22;16676;51.202;6.774;2024-01-25T02:02:35;19.20;66.70
29775;DHT22;16676;51.202;6.774;2024-01-25T02:06:37;19.20;66.70
29775;DHT22;16676;51.202;6.774;2024-01-25T02:10:40;19.20;66.60
29775;DHT22;16676;51.202;6.774;2024-01-25T02:14:44;19.20;66.60
29775;DHT22;16676;51.202;6.774;2024-01-25T02:18:46;19.20;66.70
29775;DHT22;16676;51.202;6.774;2024-01-25T02:22:49;19.10;66.50
29775;DHT22;16676;51.202;6.774;2024-01-25T02:26:51;19.00;66.70
29775;DHT22;16676;51.202;6.774;2024-01-25T02:30:53;19.00;66.80
29775;DHT22;16676;51.202;6.774;2024-01-25T02:34:55;19.00;66.80
29775;DHT22;16676;51.202;6.774;2024-01-25T02:38:58;19.00;66.90
29775;DHT22;16676;51.202;6.774;2024-01-25T02:43:00;19.00;66.90
29775;DHT22;16676;51.202;6.774;2024-01-25T02:47:02;19.00;67.10
29775;DHT22;16676;51.202;6.774;2024-01-25T02:51:04;19.00;67.00
29775;DHT22;16676;51.202;6.774;2024-01-25T02:55:08;18.90;67.00
29775;DHT22;16676;51.202;6.774;2024-01-25T02:59:10;18.90;67.00
29775;DHT22;16676;51.202;6.774;2024-01-25T03:03:12;18.90;67.10
29775;DHT22;16676;51.202;6.774;2024-01-25T03:07:13;18.90;67.20
29775;DHT22;16676;51.202;6.774;2024-01-25T03:11:17;18.90;67.20
29775;DHT22;16676;51.202;6.774;2024-01-25T03:15:18;18.90;67.20
29775;DHT22;16676;51.202;6.774;2024-01-25T03:19:23;18.90;67.20
29775;DHT22;16676;51.202;6.774;2024-01-25T03:23:25;18.80;67.30
29775;DHT22;16676;51.202;6.774;2024-01-25T03:27:29;18.80;67.10
29775;DHT22;16676;51.202;6.774;2024-01-25T03:31:31;18.80;67.30
29775;DHT22;16676;51.202;6.774;2024-01-25T03:35:33;18.80;67.20
29775;DHT22;16676;51.202;6.774;2024-01-25T03:39:35;18.80;67.30
29775;DHT22;16676;51.202;6.774;2024-01-25T03:43:38;18.80;67.20
29775;DHT22;16676;51.202;6.774;2024-01-25T03:47:40;18.80;67.30
29775;DHT22;16676;51.202;6.774;2024-01-25T03:51:42;18.80;67.40
29775;DHT22;16676;51.202;6.774;2024-01-25T03:55:43;18.70;67.20
29775;DHT22;16676;51.202;6.774;2024-01-25T03:59:47;18.70;67.50
29775;DHT22;16676;51.202;6.774;2024-01-25T04:03:50;18.70;67.40
29775;DHT22;16676;51.202;6.774;2024-01-25T04:07:52;18.70;67.40
29775;DHT22;16676;51.202;6.774;2024-01-25T04:11:55;18.70;67.50
29775;DHT22;16676;51.202;6.774;2024-01-25T04:15:58;18.70;67.60
29775;DHT22;16676;51.202;6.774;2024-01-25T04:20:00;18.60;67.50
29775;DHT22;16676;51.202;6.774;2024-01-25T04:24:03;18.60;67.50
29775;DHT22;16676;51.202;6.774;2024-01-25T04:28:05;18.60;67.60
29775;DHT22;16676;51.202;6.774;2024-01-25T04:32:08;18.60;67.80
29775;DHT22;16676;51.202;6.774;2024-01-25T04:36:10;18.60;68.10
29775;DHT22;16676;51.202;6.774;2024-01-25T04:40:12;18.60;68.20
29775;DHT22;16676;51.202;6.774;2024-01-25T04:44:14;18.50;68.30
29775;DHT22;16676;51.202;6.774;2024-01-25T04:48:17;18.50;68.70
29775;DHT22;16676;51.202;6.774;2024-01-25T04:52:19;18.60;68.60
29775;DHT22;16676;51.202;6.774;2024-01-25T04:56:21;18.50;68.40
29775;DHT22;16676;51.202;6.774;2024-01-25T05:00:23;18.50;69.40
29775;DHT22;16676;51.202;6.774;2024-01-25T05:04:28;18.60;69.40
29775;DHT22;16676;51.202;6.774;2024-01-25T05:08:32;18.80;69.90
29775;DHT22;16676;51.202;6.774;2024-01-25T05:12:34;18.90;69.60
29775;DHT22;16676;51.202;6.774;2024-01-25T05:16:36;19.10;69.20
29775;DHT22;16676;51.202;6.774;2024-01-25T05:20:39;19.20;68.80
29775;DHT22;16676;51.202;6.774;2024-01-25T05:24:41;19.30;68.40
29775;DHT22;16676;51.202;6.774;2024-01-25T05:28:43;19.40;68.30
29775;DHT22;16676;51.202;6.774;2024-01-25T05:32:45;19.40;67.90
29775;DHT22;16676;51.202;6.774;2024-01-25T05:36:50;19.50;67.90
29775;DHT22;16676;51.202;6.774;2024-01-25T05:40:52;19.50;67.60
29775;DHT22;16676;51.202;6.774;2024-01-25T05:44:54;19.50;67.50
29775;DHT22;16676;51.202;6.774;2024-01-25T05:48:56;19.50;67.00
29775;DHT22;16676;51.202;6.774;2024-01-25T05:52:59;19.50;67.60
29775;DHT22;16676;51.202;6.774;2024-01-25T05:57:01;19.50;67.40
29775;DHT22;16676;51.202;6.774;2024-01-25T06:01:04;19.50;67.10
29775;DHT22;16676;51.202;6.774;2024-01-25T06:05:07;19.50;67.50
29775;DHT22;16676;51.202;6.774;2024-01-25T06:09:10;19.50;67.40
29775;DHT22;16676;51.202;6.774;2024-01-25T06:13:12;19.50;67.40
29775;DHT22;16676;51.202;6.774;2024-01-25T06:17:14;19.50;67.30
29775;DHT22;16676;51.202;6.774;2024-01-25T06:21:16;19.50;66.60
29775;DHT22;16676;51.202;6.774;2024-01-25T06:25:19;19.50;67.10
29775;DHT22;16676;51.202;6.774;2024-01-25T06:29:21;19.50;66.70
29775;DHT22;16676;51.202;6.774;2024-01-25T06:33:23;19.50;67.60
29775;DHT22;16676;51.202;6.774;2024-01-25T06:37:25;19.40;67.70
29775;DHT22;16676;51.202;6.774;2024-01-25T06:41:28;19.40;67.70
29775;DHT22;16676;51.202;6.774;2024-01-25T06:45:30;19.40;67.20
29775;DHT22;16676;51.202;6.774;2024-01-25T06:49:32;19.40;67.10
29775;DHT22;16676;51.202;6.774;2024-01-25T06:53:34;19.40;66.70
29775;DHT22;16676;51.202;6.774;2024-01-25T06:57:38;19.40;66.70
29775;DHT22;16676;51.202;6.774;2024-01-25T07:01:40;19.40;66.70
29775;DHT22;16676;51.202;6.774;2024-01-25T07:05:41;19.40;66.80
29775;DHT22;16676;51.202;6.774;2024-01-25T07:09:43;19.40;66.60
29775;DHT22;16676;51.202;6.774;2024-01-25T07:13:47;19.40;66.50
29775;DHT22;16676;51.202;6.774;2024-01-25T07:17:49;19.30;66.60
29775;DHT22;16676;51.202;6.774;2024-01-25T07:21:50;19.30;67.10
29775;DHT22;16676;51.202;6.774;2024-01-25T07:25:52;19.30;67.40
29775;DHT22;16676;51.202;6.774;2024-01-25T07:29:56;19.20;61.40
29775;DHT22;16676;51.202;6.774;2024-01-25T07:33:57;19.00;61.20
29775;DHT22;16676;51.202;6.774;2024-01-25T07:37:59;18.90;59.60
29775;DHT22;16676;51.202;6.774;2024-01-25T07:42:01;18.80;58.50
29775;DHT22;16676;51.202;6.774;2024-01-25T07:46:04;18.60;57.20
29775;DHT22;16676;51.202;6.774;2024-01-25T07:50:07;18.10;55.50
29775;DHT22;16676;51.202;6.774;2024-01-25T07:54:10;17.40;55.90
29775;DHT22;16676;51.202;6.774;2024-01-25T07:58:12;17.20;57.00
29775;DHT22;16676;51.202;6.774;2024-01-25T08:02:15;16.90;56.60
29775;DHT22;16676;51.202;6.774;2024-01-25T08:06:17;16.80;60.00
29775;DHT22;16676;51.202;6.774;2024-01-25T08:10:19;17.40;60.00
29775;DHT22;16676;51.202;6.774;2024-01-25T08:14:21;18.00;60.10
29775;DHT22;16676;51.202;6.774;2024-01-25T08:18:24;18.60;59.70
29775;DHT22;16676;51.202;6.774;2024-01-25T08:22:29;19.10;59.20
29775;DHT22;16676;51.202;6.774;2024-01-25T08:26:32;19.50;58.80
29775;DHT22;16676;51.202;6.774;2024-01-25T08:30:35;19.90;58.80
29775;DHT22;16676;51.202;6.774;2024-01-25T08:34:39;20.20;58.70
29775;DHT22;16676;51.202;6.774;2024-01-25T08:38:41;20.50;58.70
29775;DHT22;16676;51.202;6.774;2024-01-25T08:42:43;20.70;58.60
29775;DHT22;16676;51.202;6.774;2024-01-25T08:46:45;20.90;58.60
29775;DHT22;16676;51.202;6.774;2024-01-25T08:50:48;21.00;58.40
29775;DHT22;16676;51.202;6.774;2024-01-25T08:54:53;21.20;58.50
29775;DHT22;16676;51.202;6.774;2024-01-25T08:58:55;21.30;58.50
29775;DHT22;16676;51.202;6.774;2024-01-25T09:02:57;21.40;58.70
29775;DHT22;16676;51.202;6.774;2024-01-25T09:07:01;21.50;58.60
29775;DHT22;16676;51.202;6.774;2024-01-25T09:11:03;21.60;58.80
29775;DHT22;16676;51.202;6.774;2024-01-25T09:15:06;21.60;58.90
29775;DHT22;16676;51.202;6.774;2024-01-25T09:19:09;21.70;59.00
29775;DHT22;16676;51.202;6.774;2024-01-25T09:23:12;21.70;59.30
29775;DHT22;16676;51.202;6.774;2024-01-25T09:27:14;21.70;59.40
29775;DHT22;16676;51.202;6.774;2024-01-25T09:31:16;21.70;59.40
29775;DHT22;16676;51.202;6.774;2024-01-25T09:35:18;21.70;59.70
29775;DHT22;16676;51.202;6.774;2024-01-25T09:39:22;21.80;59.60
29775;DHT22;16676;51.202;6.774;2024-01-25T09:43:24;21.80;60.40
29775;DHT22;16676;51.202;6.774;2024-01-25T09:47:25;21.80;59.80
29775;DHT22;16676;51.202;6.774;2024-01-25T09:51:28;21.80;60.00
29775;DHT22;16676;51.202;6.774;2024-01-25T09:55:32;21.80;60.10
29775;DHT22;16676;51.202;6.774;2024-01-25T09:59:36;21.70;60.30
29775;DHT22;16676;51.202;6.774;2024-01-25T10:03:38;21.70;60.30
29775;DHT22;16676;51.202;6.774;2024-01-25T10:07:42;21.70;60.30
29775;DHT22;16676;51.202;6.774;2024-01-25T10:11:46;21.70;60.60
29775;DHT22;16676;51.202;6.774;2024-01-25T10:15:47;21.70;60.80
29775;DHT22;16676;51.202;6.774;2024-01-25T10:19:49;21.60;62.10
29775;DHT22;16676;51.202;6.774;2024-01-25T10:23:51;21.60;61.40
29775;DHT22;16676;51.202;6.774;2024-01-25T10:27:57;21.50;61.70
29775;DHT22;16676;51.202;6.774;2024-01-25T10:31:59;21.50;62.10
29775;DHT22;16676;51.202;6.774;2024-01-25T10:36:01;21.50;62.40
29775;DHT22;16676;51.202;6.774;2024-01-25T10:40:04;21.40;62.80
29775;DHT22;16676;51.202;6.774;2024-01-25T10:44:08;21.40;63.00
29775;DHT22;16676;51.202;6.774;2024-01-25T10:48:10;21.40;63.30
29775;DHT22;16676;51.202;6.774;2024-01-25T10:52:13;21.40;63.60
29775;DHT22;16676;51.202;6.774;2024-01-25T10:56:15;21.40;64.50
29775;DHT22;16676;51.202;6.774;2024-01-25T11:00:18;21.30;64.00
29775;DHT22;16676;51.202;6.774;2024-01-25T11:04:20;21.30;64.20
29775;DHT22;16676;51.202;6.774;2024-01-25T11:08:24;21.30;64.30
29775;DHT22;16676;51.202;6.774;2024-01-25T11:12:26;21.30;64.40
29775;DHT22;16676;51.202;6.774;2024-01-25T11:16:30;21.30;64.60
29775;DHT22;16676;51.202;6.774;2024-01-25T11:20:35;21.30;64.80
29775;DHT22;16676;51.202;6.774;2024-01-25T11:24:38;21.20;64.90
29775;DHT22;16676;51.202;6.774;2024-01-25T11:28:40;21.30;65.00
29775;DHT22;16676;51.202;6.774;2024-01-25T11:32:44;21.20;65.20
29775;DHT22;16676;51.202;6.774;2024-01-25T11:36:46;21.20;65.30
29775;DHT22;16676;51.202;6.774;2024-01-25T11:40:47;21.20;65.50
29775;DHT22;16676;51.202;6.774;2024-01-25T11:44:49;21.20;65.60
29775;DHT22;16676;51.202;6.774;2024-01-25T11:48:53;21.10;65.70
29775;DHT22;16676;51.202;6.774;2024-01-25T11:52:55;21.10;65.70
29775;DHT22;16676;51.202;6.774;2024-01-25T11:56:57;21.20;65.90
29775;DHT22;16676;51.202;6.774;2024-01-25T12:00:59;21.20;65.90
29775;DHT22;16676;51.202;6.774;2024-01-25T12:05:03;21.20;66.10
29775;DHT22;16676;51.202;6.774;2024-01-25T12:09:07;21.10;66.20
29775;DHT22;16676;51.202;6.774;2024-01-25T12:13:09;21.10;66.20
29775;DHT22;16676;51.202;6.774;2024-01-25T12:17:12;20.50;54.40
29775;DHT22;16676;51.202;6.774;2024-01-25T12:21:15;19.60;54.90
29775;DHT22;16676;51.202;6.774;2024-01-25T12:25:17;19.00;54.30
29775;DHT22;16676;51.202;6.774;2024-01-25T12:29:19;18.30;54.70
29775;DHT22;16676;51.202;6.774;2024-01-25T12:33:21;17.90;55.90
29775;DHT22;16676;51.202;6.774;2024-01-25T12:37:25;18.00;58.20
29775;DHT22;16676;51.202;6.774;2024-01-25T12:41:27;18.50;58.60
29775;DHT22;16676;51.202;6.774;2024-01-25T12:45:29;18.90;58.80
29775;DHT22;16676;51.202;6.774;2024-01-25T12:49:31;19.10;58.60
29775;DHT22;16676;51.202;6.774;2024-01-25T12:53:34;19.30;58.80
29775;DHT22;16676;51.202;6.774;2024-01-25T12:57:36;19.30;58.60
29775;DHT22;16676;51.202;6.774;2024-01-25T13:01:38;19.30;58.90
29775;DHT22;16676;51.202;6.774;2024-01-25T13:05:40;19.30;59.10
29775;DHT22;16676;51.202;6.774;2024-01-25T13:09:43;19.40;59.30
29775;DHT22;16676;51.202;6.774;2024-01-25T13:13:46;19.40;59.50
29775;DHT22;16676;51.202;6.774;2024-01-25T13:17:47;19.50;59.60
29775;DHT22;16676;51.202;6.774;2024-01-25T13:21:49;19.50;59.70
29775;DHT22;16676;51.202;6.774;2024-01-25T13:25:53;19.50;59.80
29775;DHT22;16676;51.202;6.774;2024-01-25T13:29:55;19.50;59.90
29775;DHT22;16676;51.202;6.774;2024-01-25T13:33:57;19.60;60.00
29775;DHT22;16676;51.202;6.774;2024-01-25T13:37:59;19.60;60.00
29775;DHT22;16676;51.202;6.774;2024-01-25T13:42:04;19.60;60.10
29775;DHT22;16676;51.202;6.774;2024-01-25T13:46:06;19.60;60.10
29775;DHT22;16676;51.202;6.774;2024-01-25T13:50:08;19.60;60.30
29775;DHT22;16676;51.202;6.774;2024-01-25T13:54:10;19.60;60.50
29775;DHT22;16676;51.202;6.774;2024-01-25T13:58:13;19.60;60.30
29775;DHT22;16676;51.202;6.774;2024-01-25T14:02:15;19.60;60.50
29775;DHT22;16676;51.202;6.774;2024-01-25T14:06:17;19.70;60.60
29775;DHT22;16676;51.202;6.774;2024-01-25T14:10:19;19.60;60.50
29775;DHT22;16676;51.202;6.774;2024-01-25T14:14:22;19.60;60.60
29775;DHT22;16676;51.202;6.774;2024-01-25T14:18:24;19.60;60.80
29775;DHT22;16676;51.202;6.774;2024-01-25T14:22:26;19.70;60.70
29775;DHT22;16676;51.202;6.774;2024-01-25T14:26:28;19.70;60.70
29775;DHT22;16676;51.202;6.774;2024-01-25T14:30:32;19.70;60.40
29775;DHT22;16676;51.202;6.774;2024-01-25T14:34:34;19.70;60.30
29775;DHT22;16676;51.202;6.774;2024-01-25T14:38:36;19.80;60.50
29775;DHT22;16676;51.202;6.774;2024-01-25T14:42:38;19.80;60.30
29775;DHT22;16676;51.202;6.774;2024-01-25T14:46:41;19.90;60.10
29775;DHT22;16676;51.202;6.774;2024-01-25T14:50:43;20.10;59.70
29775;DHT22;16676;51.202;6.774;2024-01-25T14:54:45;20.30;59.20
29775;DHT22;16676;51.202;6.774;2024-01-25T14:58:47;20.40;59.00
29775;DHT22;16676;51.202;6.774;2024-01-25T15:02:50;20.50;58.70
29775;DHT22;16676;51.202;6.774;2024-01-25T15:06:52;20.70;58.70
29775;DHT22;16676;51.202;6.774;2024-01-25T15:10:54;20.70;58.50
29775;DHT22;16676;51.202;6.774;2024-01-25T15:14:56;20.80;58.40
29775;DHT22;16676;51.202;6.774;2024-01-25T15:18:59;20.90;58.20
29775;DHT22;16676;51.202;6.774;2024-01-25T15:23:02;20.80;59.30
29775;DHT22;16676;51.202;6.774;2024-01-25T15:27:04;20.70;58.90
29775;DHT22;16676;51.202;6.774;2024-01-25T15:31:07;20.70;59.00
29775;DHT22;16676;51.202;6.774;2024-01-25T15:35:10;20.70;59.10
29775;DHT22;16676;51.202;6.774;2024-01-25T15:39:12;20.70;59.20
29775;DHT22;16676;51.202;6.774;2024-01-25T15:43:14;20.70;59.40
29775;DHT22;16676;51.202;6.774;2024-01-25T15:47:16;20.70;59.30
29775;DHT22;16676;51.202;6.774;2024-01-25T15:51:20;20.70;59.40
29775;DHT22;16676;51.202;6.774;2024-01-25T15:55:22;20.60;59.30
29775;DHT22;16676;51.202;6.774;2024-01-25T15:59:24;20.60;59.80
29775;DHT22;16676;51.202;6.774;2024-01-25T16:03:26;20.60;59.40
29775;DHT22;16676;51.202;6.774;2024-01-25T16:07:30;20.60;59.70
29775;DHT22;16676;51.202;6.774;2024-01-25T16:11:32;20.60;59.60
29775;DHT22;16676;51.202;6.774;2024-01-25T16:15:34;20.50;59.80
29775;DHT22;16676;51.202;6.774;2024-01-25T16:19:36;20.50;59.70
29775;DHT22;16676;51.202;6.774;2024-01-25T16:23:39;20.50;60.00
29775;DHT22;16676;51.202;6.774;2024-01-25T16:27:41;20.50;59.90
29775;DHT22;16676;51.202;6.774;2024-01-25T16:31:43;20.40;60.00
29775;DHT22;16676;51.202;6.774;2024-01-25T16:35:45;20.40;59.80
29775;DHT22;16676;51.202;6.774;2024-01-25T16:39:49;20.40;59.90
29775;DHT22;16676;51.202;6.774;2024-01-25T16:43:51;20.40;60.00
29775;DHT22;16676;51.202;6.774;2024-01-25T16:47:52;20.30;59.80
29775;DHT22;16676;51.202;6.774;2024-01-25T16:51:55;20.30;59.90
29775;DHT22;16676;51.202;6.774;2024-01-25T16:55:58;20.30;59.90
29775;DHT22;16676;51.202;6.774;2024-01-25T17:00:00;20.30;59.80
29775;DHT22;16676;51.202;6.774;2024-01-25T17:04:02;20.20;59.70
29775;DHT22;16676;51.202;6.774;2024-01-25T17:08:06;20.20;60.10
29775;DHT22;16676;51.202;6.774;2024-01-25T17:12:09;20.20;60.10
29775;DHT22;16676;51.202;6.774;2024-01-25T17:16:14;20.10;60.00
29775;DHT22;16676;51.202;6.774;2024-01-25T17:20:17;20.10;60.20
29775;DHT22;16676;51.202;6.774;2024-01-25T17:24:19;20.10;60.10
29775;DHT22;16676;51.202;6.774;2024-01-25T17:28:22;20.10;60.20
29775;DHT22;16676;51.202;6.774;2024-01-25T17:32:24;20.10;60.30
29775;DHT22;16676;51.202;6.774;2024-01-25T17:36:27;20.10;60.30
29775;DHT22;16676;51.202;6.774;2024-01-25T17:40:29;20.00;60.30
29775;DHT22;16676;51.202;6.774;2024-01-25T17:44:32;20.00;60.20
29775;DHT22;16676;51.202;6.774;2024-01-25T17:48:35;20.00;59.90
29775;DHT22;16676;51.202;6.774;2024-01-25T17:52:37;19.90;60.20
29775;DHT22;16676;51.202;6.774;2024-01-25T17:56:39;19.80;60.10
29775;DHT22;16676;51.202;6.774;2024-01-25T18:00:42;19.80;60.90
29775;DHT22;16676;51.202;6.774;2024-01-25T18:04:44;19.80;60.50
29775;DHT22;16676;51.202;6.774;2024-01-25T18:08:46;19.80;60.90
29775;DHT22;16676;51.202;6.774;2024-01-25T18:12:48;19.80;60.90
29775;DHT22;16676;51.202;6.774;2024-01-25T18:16:51;19.90;60.90
29775;DHT22;16676;51.202;6.774;2024-01-25T18:20:53;19.80;60.90
29775;DHT22;16676;51.202;6.774;2024-01-25T18:24:55;19.80;61.20
29775;DHT22;16676;51.202;6.774;2024-01-25T18:28:57;19.70;61.20
29775;DHT22;16676;51.202;6.774;2024-01-25T18:33:01;19.70;61.60
29775;DHT22;16676;51.202;6.774;2024-01-25T18:37:03;19.60;61.60
29775;DHT22;16676;51.202;6.774;2024-01-25T18:41:05;19.60;61.70
29775;DHT22;16676;51.202;6.774;2024-01-25T18:45:10;19.50;62.20
29775;DHT22;16676;51.202;6.774;2024-01-25T18:49:13;19.40;62.70
29775;DHT22;16676;51.202;6.774;2024-01-25T18:53:15;19.30;63.30
29775;DHT22;16676;51.202;6.774;2024-01-25T18:57:19;19.30;64.00
29775;DHT22;16676;51.202;6.774;2024-01-25T19:01:22;19.40;64.30
29775;DHT22;16676;51.202;6.774;2024-01-25T19:05:26;19.40;64.80
29775;DHT22;16676;51.202;6.774;2024-01-25T19:09:28;19.50;64.90
29775;DHT22;16676;51.202;6.774;2024-01-25T19:13:30;19.40;65.10
29775;DHT22;16676;51.202;6.774;2024-01-25T19:17:32;19.40;65.40
29775;DHT22;16676;51.202;6.774;2024-01-25T19:21:36;19.40;65.40
29775;DHT22;16676;51.202;6.774;2024-01-25T19:25:37;19.40;65.40
29775;DHT22;16676;51.202;6.774;2024-01-25T19:29:39;19.40;65.50
29775;DHT22;16676;51.202;6.774;2024-01-25T19:33:42;19.40;65.50
29775;DHT22;16676;51.202;6.774;2024-01-25T19:37:45;19.40;65.60
29775;DHT22;16676;51.202;6.774;2024-01-25T19:41:48;19.40;65.90
29775;DHT22;16676;51.202;6.774;2024-01-25T19:45:50;19.40;65.80
29775;DHT22;16676;51.202;6.774;2024-01-25T19:49:52;19.40;65.90
29775;DHT22;16676;51.202;6.774;2024-01-25T19:53:55;19.40;66.90
29775;DHT22;16676;51.202;6.774;2024-01-25T19:57:59;19.40;68.10
29775;DHT22;16676;51.202;6.774;2024-01-25T20:02:01;19.50;68.80
29775;DHT22;16676;51.202;6.774;2024-01-25T20:06:07;19.50;69.00
29775;DHT22;16676;51.202;6.774;2024-01-25T20:10:12;19.50;69.30
29775;DHT22;16676;51.202;6.774;2024-01-25T20:14:14;19.50;68.80
29775;DHT22;16676;51.202;6.774;2024-01-25T20:18:16;19.40;68.20
29775;DHT22;16676;51.202;6.774;2024-01-25T20:22:17;19.40;68.20
29775;DHT22;16676;51.202;6.774;2024-01-25T20:26:21;19.30;68.10
29775;DHT22;16676;51.202;6.774;2024-01-25T20:30:23;19.30;67.90
29775;DHT22;16676;51.202;6.774;2024-01-25T20:34:28;19.30;68.00
29775;DHT22;16676;51.202;6.774;2024-01-25T20:38:31;19.30;68.00
29775;DHT22;16676;51.202;6.774;2024-01-25T20:42:34;19.20;67.90
29775;DHT22;16676;51.202;6.774;2024-01-25T20:46:36;19.20;68.10
29775;DHT22;16676;51.202;6.774;2024-01-25T20:50:38;19.20;67.80
29775;DHT22;16676;51.202;6.774;2024-01-25T20:54:40;19.20;68.10
29775;DHT22;16676;51.202;6.774;2024-01-25T20:58:43;19.10;67.80
29775;DHT22;16676;51.202;6.774;2024-01-25T21:02:47;19.10;67.70
29775;DHT22;16676;51.202;6.774;2024-01-25T21:06:49;19.20;68.60
29775;DHT22;16676;51.202;6.774;2024-01-25T21:10:52;19.20;68.40
29775;DHT22;16676;51.202;6.774;2024-01-25T21:14:56;19.20;69.70
29775;DHT22;16676;51.202;6.774;2024-01-25T21:18:58;19.20;69.10
29775;DHT22;16676;51.202;6.774;2024-01-25T21:23:00;19.10;68.70
29775;DHT22;16676;51.202;6.774;2024-01-25T21:27:03;19.10;68.40
29775;DHT22;16676;51.202;6.774;2024-01-25T21:31:06;19.00;69.10
29775;DHT22;16676;51.202;6.774;2024-01-25T21:35:09;19.10;69.40
29775;DHT22;16676;51.202;6.774;2024-01-25T21:39:11;19.10;69.50
29775;DHT22;16676;51.202;6.774;2024-01-25T21:43:13;19.10;69.50
29775;DHT22;16676;51.202;6.774;2024-01-25T21:47:16;19.00;69.60
29775;DHT22;16676;51.202;6.774;2024-01-25T21:51:18;19.10;69.30
29775;DHT22;16676;51.202;6.774;2024-01-25T21:55:20;19.00;69.60
29775;DHT22;16676;51.202;6.774;2024-01-25T21:59:22;19.00;69.40
29775;DHT22;16676;51.202;6.774;2024-01-25T22:03:25;19.00;70.20
29775;DHT22;16676;51.202;6.774;2024-01-25T22:07:27;19.10;69.10
29775;DHT22;16676;51.202;6.774;2024-01-25T22:11:29;19.10;69.20
29775;DHT22;16676;51.202;6.774;2024-01-25T22:15:31;19.10;68.40
29775;DHT22;16676;51.202;6.774;2024-01-25T22:19:34;19.00;68.70
29775;DHT22;16676;51.202;6.774;2024-01-25T22:23:36;19.00;69.00
29775;DHT22;16676;51.202;6.774;2024-01-25T22:27:38;19.00;68.30
29775;DHT22;16676;51.202;6.774;2024-01-25T22:31:40;19.00;68.10
29775;DHT22;16676;51.202;6.774;2024-01-25T22:35:43;19.10;68.10
29775;DHT22;16676;51.202;6.774;2024-01-25T22:39:45;19.10;67.90
29775;DHT22;16676;51.202;6.774;2024-01-25T22:43:47;19.10;68.30
29775;DHT22;16676;51.202;6.774;2024-01-25T22:47:49;19.00;68.60
29775;DHT22;16676;51.202;6.774;2024-01-25T22:51:52;19.00;68.80
29775;DHT22;16676;51.202;6.774;2024-01-25T22:55:54;19.00;68.70
29775;DHT22;16676;51.202;6.774;2024-01-25T22:59:56;18.90;69.00
29775;DHT22;16676;51.202;6.774;2024-01-25T23:03:58;18.90;68.90
29775;DHT22;16676;51.202;6.774;2024-01-25T23:08:01;18.90;69.00
29775;DHT22;16676;51.202;6.774;2024-01-25T23:12:04;19.00;68.60
29775;DHT22;16676;51.202;6.774;2024-01-25T23:16:06;18.90;68.80
29775;DHT22;16676;51.202;6.774;2024-01-25T23:20:09;19.00;68.40
29775;DHT22;16676;51.202;6.774;2024-01-25T23:24:12;18.90;68.70
29775;DHT22;16676;51.202;6.774;2024-01-25T23:28:14;19.00;68.70
29775;DHT22;16676;51.202;6.774;2024-01-25T23:32:16;18.90;68.40
29775;DHT22;16676;51.202;6.774;2024-01-25T23:36:18;18.90;68.60
29775;DHT22;16676;51.202;6.774;2024-01-25T23:40:22;18.90;69.10
29775;DHT22;16676;51.202;6.774;2024-01-25T23:44:24;18.90;69.00
29775;DHT22;16676;51.202;6.774;2024-01-25T23:48:26;18.90;69.20
29775;DHT22;16676;51.202;6.774;2024-01-25T23:52:28;18.80;68.80
29775;DHT22;16676;51.202;6.774;2024-01-25T23:56:31;18.80;69.40
